createdAt,value
2018-04-16T00:01:29.651Z,13.00
2018-04-16T00:03:57.700Z,13.00
2018-04-16T00:06:25.827Z,12.90
2018-04-16T00:08:53.867Z,12.80
2018-04-16T00:11:26.896Z,12.80
2018-04-16T00:13:54.947Z,12.70
2018-04-16T00:16:22.995Z,12.60
2018-04-16T00:18:51.036Z,12.50
2018-04-16T00:21:19.855Z,12.30
2018-04-16T00:23:47.899Z,12.30
2018-04-16T00:26:15.948Z,12.30
2018-04-16T00:28:43.995Z,12.20
2018-04-16T00:31:12.808Z,12.00
2018-04-16T00:33:46.338Z,12.00
2018-04-16T00:39:23.442Z,11.90
2018-04-16T00:41:57.796Z,11.70
2018-04-16T00:44:31.567Z,11.70
2018-04-16T00:47:05.175Z,11.70
2018-04-16T00:49:38.836Z,11.60
2018-04-16T00:52:12.420Z,11.60
2018-04-16T00:54:46.069Z,11.50
2018-04-16T00:57:19.752Z,11.50
2018-04-16T00:59:53.275Z,11.50
2018-04-16T01:02:27.807Z,11.40
2018-04-16T01:05:02.198Z,11.40
2018-04-16T01:07:35.818Z,11.40
2018-04-16T01:10:09.562Z,11.40
2018-04-16T01:12:43.160Z,11.40
2018-04-16T01:15:16.923Z,11.40
2018-04-16T01:17:50.438Z,11.40
2018-04-16T01:20:23.946Z,11.40
2018-04-16T01:22:57.481Z,11.40
2018-04-16T01:25:31.034Z,11.30
2018-04-16T01:28:04.591Z,11.40
2018-04-16T01:30:38.199Z,11.40
2018-04-16T01:33:12.484Z,11.30
2018-04-16T01:35:46.069Z,11.30
2018-04-16T01:38:19.889Z,11.30
2018-04-16T01:40:53.503Z,11.20
2018-04-16T01:43:27.292Z,11.20
2018-04-16T01:46:01.764Z,11.10
2018-04-16T01:48:35.440Z,11.00
2018-04-16T01:51:09.851Z,11.00
2018-04-16T01:53:43.576Z,10.90
2018-04-16T01:56:17.195Z,10.90
2018-04-16T01:58:50.911Z,10.90
2018-04-16T02:01:24.554Z,10.80
2018-04-16T02:03:58.351Z,10.80
2018-04-16T02:06:32.887Z,10.70
2018-04-16T02:09:07.294Z,10.60
2018-04-16T02:11:40.803Z,10.60
2018-04-16T02:14:14.429Z,10.60
2018-04-16T02:19:49.479Z,10.50
2018-04-16T02:22:23.119Z,10.50
2018-04-16T02:28:01.016Z,10.50
2018-04-16T02:30:34.615Z,10.40
2018-04-16T02:33:08.944Z,10.40
2018-04-16T02:35:42.552Z,10.40
2018-04-16T02:38:16.152Z,10.40
2018-04-16T02:40:49.883Z,10.40
2018-04-16T02:43:23.513Z,10.40
2018-04-16T02:45:58.055Z,10.50
2018-04-16T02:48:32.604Z,10.50
2018-04-16T02:51:06.227Z,10.50
2018-04-16T02:53:39.955Z,10.50
2018-04-16T02:56:13.619Z,10.50
2018-04-16T02:58:48.747Z,10.60
2018-04-16T03:01:22.350Z,10.60
2018-04-16T03:03:56.129Z,10.70
2018-04-16T03:09:38.045Z,10.80
2018-04-16T03:12:11.771Z,10.80
2018-04-16T03:14:45.504Z,10.80
2018-04-16T03:17:19.065Z,10.80
2018-04-16T03:19:52.864Z,10.80
2018-04-16T03:22:26.458Z,10.80
2018-04-16T03:25:00.901Z,10.80
2018-04-16T03:27:35.387Z,10.70
2018-04-16T03:30:09.013Z,10.70
2018-04-16T03:32:42.760Z,10.70
2018-04-16T03:35:17.066Z,10.60
2018-04-16T03:37:50.807Z,10.70
2018-04-16T03:40:25.212Z,10.50
2018-04-16T03:42:58.853Z,10.50
2018-04-16T03:45:32.451Z,10.50
2018-04-16T03:48:06.231Z,10.50
2018-04-16T03:53:52.130Z,10.40
2018-04-16T03:56:20.956Z,10.40
2018-04-16T03:58:49.008Z,10.30
2018-04-16T04:01:17.103Z,10.30
2018-04-16T04:03:45.098Z,10.30
2018-04-16T04:06:13.163Z,10.20
2018-04-16T04:08:41.214Z,10.20
2018-04-16T04:11:09.269Z,10.20
2018-04-16T04:13:37.319Z,10.20
2018-04-16T04:16:06.144Z,10.10
2018-04-16T04:18:34.197Z,10.10
2018-04-16T04:21:02.322Z,10.10
2018-04-16T04:23:48.231Z,10.10
2018-04-16T04:26:34.439Z,10.00
2018-04-16T04:29:20.446Z,10.00
2018-04-16T04:31:48.531Z,9.90
2018-04-16T04:34:16.585Z,9.90
2018-04-16T04:36:45.405Z,9.70
2018-04-16T04:39:14.207Z,9.70
2018-04-16T04:41:42.305Z,9.70
2018-04-16T04:44:10.352Z,9.70
2018-04-16T04:46:38.483Z,9.70
2018-04-16T04:49:06.570Z,9.60
2018-04-16T04:51:34.624Z,9.60
2018-04-16T04:54:03.431Z,9.60
2018-04-16T04:56:32.351Z,9.60
2018-04-16T04:59:00.433Z,9.60
2018-04-16T05:01:28.517Z,9.60
2018-04-16T05:03:56.611Z,9.60
2018-04-16T05:06:24.668Z,9.70
2018-04-16T05:08:53.491Z,9.60
2018-04-16T05:11:21.548Z,9.60
2018-04-16T05:13:50.375Z,9.60
2018-04-16T05:16:18.424Z,9.60
2018-04-16T05:18:46.479Z,9.60
2018-04-16T05:21:14.538Z,9.60
2018-04-16T05:23:42.616Z,9.60
2018-04-16T05:26:10.681Z,9.60
2018-04-16T05:28:39.500Z,9.60
2018-04-16T05:31:07.559Z,9.60
2018-04-16T05:33:36.367Z,9.70
2018-04-16T05:36:05.184Z,9.70
2018-04-16T05:38:33.224Z,9.70
2018-04-16T05:41:02.356Z,9.70
2018-04-16T05:43:31.184Z,9.80
2018-04-16T05:45:59.280Z,9.80
2018-04-16T05:48:27.335Z,9.90
2018-04-16T05:50:56.147Z,10.00
2018-04-16T05:53:24.202Z,10.00
2018-04-16T05:55:52.251Z,10.00
2018-04-16T05:58:20.309Z,10.10
2018-04-16T06:00:48.359Z,10.10
2018-04-16T06:03:16.409Z,10.10
2018-04-16T06:05:44.456Z,10.20
2018-04-16T06:08:12.508Z,10.20
2018-04-16T06:10:40.562Z,10.30
2018-04-16T06:13:08.723Z,10.40
2018-04-16T06:15:36.772Z,10.40
2018-04-16T06:18:04.827Z,10.50
2018-04-16T06:20:32.975Z,10.70
2018-04-16T06:23:01.035Z,10.80
2018-04-16T06:25:29.871Z,11.00
2018-04-16T06:27:57.931Z,10.90
2018-04-16T06:30:25.979Z,11.10
2018-04-16T06:32:54.038Z,11.20
2018-04-16T06:35:22.094Z,11.30
2018-04-16T06:37:50.183Z,11.40
2018-04-16T06:40:18.244Z,11.50
2018-04-16T06:42:47.059Z,11.80
2018-04-16T06:45:15.137Z,11.80
2018-04-16T06:47:43.955Z,12.10
2018-04-16T06:50:12.007Z,12.10
2018-04-16T06:52:40.824Z,12.20
2018-04-16T06:55:09.652Z,12.40
2018-04-16T06:57:37.700Z,12.40
2018-04-16T07:00:06.554Z,12.70
2018-04-16T07:02:34.591Z,12.70
2018-04-16T07:05:03.425Z,13.00
2018-04-16T07:07:31.500Z,13.00
2018-04-16T07:09:59.584Z,13.20
2018-04-16T07:12:27.620Z,13.30
2018-04-16T07:14:56.443Z,13.60
2018-04-16T07:17:25.264Z,13.80
2018-04-16T07:19:54.070Z,13.90
2018-04-16T07:22:22.120Z,13.90
2018-04-16T07:24:50.175Z,13.90
2018-04-16T07:27:18.293Z,14.00
2018-04-16T07:29:46.295Z,14.20
2018-04-16T07:32:15.099Z,14.30
2018-04-16T07:34:43.196Z,14.30
2018-04-16T07:37:11.239Z,14.40
2018-04-16T07:39:39.291Z,14.50
2018-04-16T07:42:07.367Z,14.60
2018-04-16T07:44:35.443Z,14.70
2018-04-16T07:47:03.494Z,14.80
2018-04-16T07:49:32.304Z,15.10
2018-04-16T07:52:01.127Z,15.20
2018-04-16T07:54:29.171Z,15.20
2018-04-16T07:56:57.234Z,15.30
2018-04-16T07:59:25.380Z,15.60
2018-04-16T08:01:53.435Z,15.80
2018-04-16T08:04:22.251Z,16.00
2018-04-16T08:06:51.072Z,16.00
2018-04-16T08:09:19.119Z,16.00
2018-04-16T08:11:47.168Z,16.00
2018-04-16T08:14:15.207Z,16.10
2018-04-16T08:16:44.024Z,16.30
2018-04-16T08:19:12.115Z,16.20
2018-04-16T08:21:40.174Z,16.40
2018-04-16T08:24:08.985Z,16.30
2018-04-16T08:26:37.039Z,16.30
2018-04-16T08:29:05.167Z,16.40
2018-04-16T08:31:33.219Z,16.50
2018-04-16T08:34:02.030Z,16.60
2018-04-16T08:36:30.843Z,16.70
2018-04-16T08:38:58.884Z,16.60
2018-04-16T08:41:28.460Z,16.70
2018-04-16T08:43:56.516Z,16.70
2018-04-16T08:46:24.633Z,16.90
2018-04-16T08:48:52.671Z,16.90
2018-04-16T08:51:20.723Z,17.10
2018-04-16T08:53:48.767Z,17.10
2018-04-16T08:56:16.823Z,17.00
2018-04-16T08:58:44.859Z,17.20
2018-04-16T09:01:12.911Z,17.30
2018-04-16T09:03:41.737Z,17.70
2018-04-16T09:06:09.776Z,17.70
2018-04-16T09:08:37.904Z,17.80
2018-04-16T09:11:05.947Z,17.90
2018-04-16T09:13:34.003Z,17.90
2018-04-16T09:16:02.056Z,17.90
2018-04-16T09:18:30.139Z,17.90
2018-04-16T09:20:58.180Z,18.00
2018-04-16T09:23:26.311Z,18.10
2018-04-16T09:25:54.354Z,18.20
2018-04-16T09:28:22.413Z,18.30
2018-04-16T09:30:50.457Z,18.40
2018-04-16T09:33:18.503Z,18.60
2018-04-16T09:35:46.547Z,18.60
2018-04-16T09:38:14.595Z,18.50
2018-04-16T09:40:43.399Z,18.80
2018-04-16T09:43:12.229Z,18.90
2018-04-16T09:45:40.272Z,18.90
2018-04-16T09:48:08.316Z,19.00
2018-04-16T09:50:36.360Z,19.00
2018-04-16T09:53:05.291Z,19.20
2018-04-16T09:55:33.315Z,19.20
2018-04-16T09:58:01.447Z,19.20
2018-04-16T10:00:29.486Z,19.40
2018-04-16T10:03:08.343Z,19.50
2018-04-16T10:05:37.276Z,19.70
2018-04-16T10:08:05.328Z,19.70
2018-04-16T10:10:33.367Z,19.80
2018-04-16T10:13:01.429Z,19.80
2018-04-16T10:15:29.518Z,19.70
2018-04-16T10:17:57.591Z,19.80
2018-04-16T10:20:25.612Z,19.90
2018-04-16T10:22:53.652Z,19.90
2018-04-16T10:25:22.468Z,20.00
2018-04-16T10:27:50.511Z,20.10
2018-04-16T10:30:18.639Z,20.20
2018-04-16T10:32:46.691Z,20.40
2018-04-16T10:35:15.500Z,20.30
2018-04-16T10:37:44.303Z,20.40
2018-04-16T10:40:13.122Z,20.50
2018-04-16T10:42:41.228Z,20.50
2018-04-16T10:45:09.307Z,20.50
2018-04-16T10:47:37.355Z,20.50
2018-04-16T10:50:06.176Z,20.70
2018-04-16T10:52:34.227Z,20.60
2018-04-16T10:55:03.783Z,20.80
2018-04-16T10:57:31.823Z,20.80
2018-04-16T10:59:59.961Z,20.80
2018-04-16T11:02:28.047Z,20.90
2018-04-16T11:04:56.107Z,21.10
2018-04-16T11:07:24.950Z,21.10
2018-04-16T11:09:53.735Z,21.00
2018-04-16T11:12:21.776Z,21.00
2018-04-16T11:14:49.825Z,21.10
2018-04-16T11:17:17.871Z,20.90
2018-04-16T11:19:46.688Z,20.90
2018-04-16T11:22:14.728Z,20.90
2018-04-16T11:24:42.771Z,21.00
2018-04-16T11:27:10.815Z,21.00
2018-04-16T11:29:39.637Z,21.20
2018-04-16T11:32:07.679Z,21.20
2018-04-16T11:34:37.252Z,21.30
2018-04-16T11:37:05.291Z,21.30
2018-04-16T11:39:33.433Z,21.20
2018-04-16T11:42:01.471Z,21.20
2018-04-16T11:44:30.278Z,21.10
2018-04-16T11:46:59.087Z,21.10
2018-04-16T11:49:27.901Z,21.20
2018-04-16T11:51:55.943Z,21.20
2018-04-16T11:54:23.979Z,21.10
2018-04-16T11:56:52.034Z,21.10
2018-04-16T11:59:20.848Z,21.50
2018-04-16T12:01:48.899Z,21.50
2018-04-16T12:04:16.958Z,21.80
2018-04-16T12:06:44.993Z,22.00
2018-04-16T12:09:13.796Z,22.50
2018-04-16T12:11:42.611Z,22.70
2018-04-16T12:14:10.651Z,22.60
2018-04-16T12:16:38.746Z,22.50
2018-04-16T12:19:06.778Z,22.30
2018-04-16T12:21:35.679Z,22.40
2018-04-16T12:24:03.721Z,22.40
2018-04-16T12:26:32.589Z,22.40
2018-04-16T12:29:00.655Z,22.30
2018-04-16T12:31:28.720Z,22.00
2018-04-16T12:33:56.764Z,22.00
2018-04-16T12:36:24.812Z,22.10
2018-04-16T12:38:52.981Z,22.20
2018-04-16T12:41:21.774Z,22.30
2018-04-16T12:43:49.821Z,22.20
2018-04-16T12:46:17.873Z,22.10
2018-04-16T12:48:45.911Z,22.00
2018-04-16T12:51:14.727Z,21.60
2018-04-16T12:53:43.539Z,21.50
2018-04-16T12:56:11.591Z,21.50
2018-04-16T12:58:39.635Z,21.20
2018-04-16T13:01:07.683Z,21.20
2018-04-16T13:03:36.491Z,21.00
2018-04-16T13:06:04.539Z,21.00
2018-04-16T13:08:32.590Z,20.90
2018-04-16T13:11:00.643Z,21.00
2018-04-16T13:13:28.916Z,21.20
2018-04-16T13:15:57.948Z,21.40
2018-04-16T13:18:25.988Z,21.40
2018-04-16T13:20:54.059Z,21.50
2018-04-16T13:23:22.107Z,21.80
2018-04-16T13:25:50.147Z,22.10
2018-04-16T13:28:18.199Z,22.10
2018-04-16T13:30:46.235Z,21.90
2018-04-16T13:33:15.048Z,21.60
2018-04-16T13:35:43.087Z,21.50
2018-04-16T13:38:11.143Z,21.40
2018-04-16T13:40:39.179Z,21.00
2018-04-16T13:43:07.997Z,20.60
2018-04-16T13:45:36.814Z,20.50
2018-04-16T13:48:04.859Z,20.50
2018-04-16T13:50:32.951Z,20.40
2018-04-16T13:53:00.954Z,20.30
2018-04-16T13:55:28.993Z,20.20
2018-04-16T13:57:57.045Z,20.00
2018-04-16T14:00:25.083Z,20.00
2018-04-16T14:02:53.139Z,20.20
2018-04-16T14:05:21.175Z,20.60
2018-04-16T14:07:49.221Z,21.00
2018-04-16T14:10:17.266Z,21.00
2018-04-16T14:12:45.312Z,20.90
2018-04-16T14:15:14.124Z,20.80
2018-04-16T14:17:42.941Z,20.70
2018-04-16T14:20:10.979Z,20.60
2018-04-16T14:22:39.261Z,20.40
2018-04-16T14:25:07.308Z,20.30
2018-04-16T14:27:35.355Z,20.10
2018-04-16T14:30:03.399Z,20.00
2018-04-16T14:32:31.438Z,20.00
2018-04-16T14:34:59.487Z,20.00
2018-04-16T14:37:27.528Z,20.00
2018-04-16T14:39:55.579Z,20.00
2018-04-16T14:42:24.380Z,20.20
2018-04-16T14:44:53.208Z,20.30
2018-04-16T14:47:21.251Z,20.20
2018-04-16T14:49:49.314Z,20.40
2018-04-16T14:52:17.361Z,20.30
2018-04-16T14:54:45.407Z,20.30
2018-04-16T14:57:13.448Z,20.30
2018-04-16T14:59:41.507Z,20.20
2018-04-16T15:02:09.547Z,20.20
2018-04-16T15:04:37.599Z,20.20
2018-04-16T15:07:05.643Z,20.10
2018-04-16T15:09:34.469Z,20.10
2018-04-16T15:12:02.503Z,20.10
2018-04-16T15:14:30.555Z,20.30
2018-04-16T15:16:58.595Z,20.50
2018-04-16T15:19:27.408Z,20.90
2018-04-16T15:21:56.228Z,20.90
2018-04-16T15:24:24.276Z,20.90
2018-04-16T15:26:52.311Z,21.00
2018-04-16T15:29:20.368Z,20.90
2018-04-16T15:31:48.409Z,20.70
2018-04-16T15:34:16.451Z,20.50
2018-04-16T15:36:44.499Z,20.40
2018-04-16T15:39:12.539Z,20.30
2018-04-16T15:41:40.639Z,20.20
2018-04-16T15:44:08.672Z,20.30
2018-04-16T15:46:37.484Z,20.60
2018-04-16T15:49:05.524Z,20.60
2018-04-16T15:51:33.579Z,20.80
2018-04-16T15:54:01.640Z,20.80
2018-04-16T15:56:29.682Z,20.80
2018-04-16T15:58:57.728Z,20.60
2018-04-16T16:01:25.796Z,20.50
2018-04-16T16:03:54.585Z,20.30
2018-04-16T16:06:22.632Z,20.30
2018-04-16T16:08:50.683Z,20.10
2018-04-16T16:11:18.727Z,19.90
2018-04-16T16:13:47.538Z,19.80
2018-04-16T16:16:16.364Z,19.60
2018-04-16T16:18:44.400Z,19.70
2018-04-16T16:21:12.522Z,19.70
2018-04-16T16:23:40.571Z,19.70
2018-04-16T16:26:08.637Z,19.90
2018-04-16T16:28:36.685Z,20.10
2018-04-16T16:31:04.718Z,20.30
2018-04-16T16:33:32.803Z,20.50
2018-04-16T16:36:00.845Z,20.50
2018-04-16T16:38:28.886Z,20.40
2018-04-16T16:40:57.700Z,20.20
2018-04-16T16:43:25.739Z,20.20
2018-04-16T16:45:53.828Z,20.20
2018-04-16T16:48:21.879Z,20.20
2018-04-16T16:50:49.919Z,20.20
2018-04-16T16:53:17.973Z,20.20
2018-04-16T16:55:46.020Z,20.10
2018-04-16T16:58:14.072Z,19.90
2018-04-16T17:00:42.879Z,19.70
2018-04-16T17:03:11.699Z,19.50
2018-04-16T17:05:39.744Z,19.50
2018-04-16T17:08:07.787Z,19.40
2018-04-16T17:10:35.838Z,19.30
2018-04-16T17:13:04.648Z,19.10
2018-04-16T17:15:32.755Z,19.10
2018-04-16T17:18:00.815Z,19.00
2018-04-16T17:20:29.631Z,18.80
2018-04-16T17:22:57.684Z,18.80
2018-04-16T17:25:25.811Z,18.60
2018-04-16T17:27:53.892Z,18.50
2018-04-16T17:30:21.939Z,18.40
2018-04-16T17:32:50.061Z,18.30
2018-04-16T17:35:18.130Z,18.10
2018-04-16T17:37:46.940Z,17.60
2018-04-16T17:40:15.028Z,17.60
2018-04-16T17:42:43.077Z,17.30
2018-04-16T17:45:11.213Z,17.20
2018-04-16T17:47:39.292Z,16.90
2018-04-16T17:50:07.339Z,16.70
2018-04-16T17:52:36.168Z,16.20
2018-04-16T17:55:04.226Z,16.20
2018-04-16T17:57:32.343Z,16.00
2018-04-16T18:00:00.398Z,15.80
2018-04-16T18:02:28.511Z,15.60
2018-04-16T18:04:56.605Z,15.40
2018-04-16T18:07:24.651Z,15.20
2018-04-16T18:09:53.474Z,14.90
2018-04-16T18:12:21.533Z,14.80
2018-04-16T18:14:49.656Z,14.70
2018-04-16T18:17:17.691Z,14.60
2018-04-16T18:19:45.771Z,14.40
2018-04-16T18:22:13.820Z,14.30
2018-04-16T18:24:41.877Z,14.10
2018-04-16T18:27:10.690Z,13.90
2018-04-16T18:29:38.775Z,13.80
2018-04-16T18:32:06.823Z,13.70
2018-04-16T18:34:34.882Z,13.60
2018-04-16T18:37:02.926Z,13.50
2018-04-16T18:39:30.980Z,13.40
2018-04-16T18:41:59.099Z,13.30
2018-04-16T18:44:27.152Z,13.20
2018-04-16T18:46:55.191Z,13.10
2018-04-16T18:49:23.239Z,13.00
2018-04-16T18:51:52.056Z,12.80
2018-04-16T18:54:20.143Z,12.80
2018-04-16T18:56:48.186Z,12.70
2018-04-16T18:59:16.232Z,12.70
2018-04-16T19:01:44.291Z,12.80
2018-04-16T19:04:12.381Z,12.80
2018-04-16T19:06:40.466Z,12.80
2018-04-16T19:09:08.554Z,12.80
2018-04-16T19:11:36.631Z,12.80
2018-04-16T19:14:04.692Z,12.80
2018-04-16T19:16:33.583Z,12.80
2018-04-16T19:19:01.629Z,12.80
2018-04-16T19:21:35.224Z,12.70
2018-04-16T19:24:03.316Z,12.70
2018-04-16T19:26:31.374Z,12.60
2018-04-16T19:29:00.205Z,12.60
2018-04-16T19:31:28.260Z,12.50
2018-04-16T19:34:02.800Z,12.50
2018-04-16T19:36:30.871Z,12.40
2018-04-16T19:38:59.681Z,12.40
2018-04-16T19:41:34.071Z,12.40
2018-04-16T19:44:02.116Z,12.40
2018-04-16T19:46:30.179Z,12.40
2018-04-16T19:49:04.613Z,12.30
2018-04-16T19:51:32.672Z,12.20
2018-04-16T19:54:00.726Z,12.20
2018-04-16T19:56:34.301Z,12.10
2018-04-16T19:59:03.200Z,12.00
2018-04-16T20:01:32.028Z,12.00
2018-04-16T20:04:00.948Z,12.00
2018-04-16T20:06:29.002Z,12.00
2018-04-16T20:08:57.821Z,11.90
2018-04-16T20:11:25.893Z,11.90
2018-04-16T20:13:54.734Z,11.80
2018-04-16T20:16:22.797Z,11.80
2018-04-16T20:18:51.599Z,11.70
2018-04-16T20:21:19.645Z,11.70
2018-04-16T20:23:47.839Z,11.60
2018-04-16T20:26:16.640Z,11.50
2018-04-16T20:28:45.465Z,11.40
2018-04-16T20:31:13.555Z,11.40
2018-04-16T20:33:41.615Z,11.30
2018-04-16T20:36:10.434Z,11.20
2018-04-16T20:38:38.482Z,11.20
2018-04-16T20:41:06.538Z,11.20
2018-04-16T20:43:34.698Z,11.10
2018-04-16T20:46:02.752Z,11.10
2018-04-16T20:48:31.584Z,11.00
2018-04-16T20:50:59.674Z,11.00
2018-04-16T20:53:27.728Z,11.00
2018-04-16T20:55:56.558Z,10.90
2018-04-16T20:58:24.611Z,10.90
2018-04-16T21:00:53.423Z,10.80
2018-04-16T21:03:22.248Z,10.80
2018-04-16T21:05:50.329Z,10.80
2018-04-16T21:08:18.424Z,10.80
2018-04-16T21:10:46.504Z,10.80
2018-04-16T21:13:14.552Z,10.70
2018-04-16T21:15:43.394Z,10.70
2018-04-16T21:18:11.455Z,10.70
2018-04-16T21:20:40.267Z,10.70
2018-04-16T21:23:08.360Z,10.60
2018-04-16T21:25:36.445Z,10.60
2018-04-16T21:28:05.347Z,10.60
2018-04-16T21:30:33.402Z,10.60
2018-04-16T21:33:02.213Z,10.50
2018-04-16T21:35:31.035Z,10.40
2018-04-16T21:37:59.126Z,10.40
2018-04-16T21:40:27.171Z,10.40
2018-04-16T21:42:55.294Z,10.40
2018-04-16T21:45:23.351Z,10.50
2018-04-16T21:47:52.164Z,10.80
2018-04-16T21:50:21.089Z,10.80
2018-04-16T21:52:49.144Z,10.90
2018-04-16T21:55:17.959Z,11.10
2018-04-16T21:57:46.003Z,11.10
2018-04-16T22:00:14.131Z,11.10
2018-04-16T22:02:42.183Z,11.00
2018-04-16T22:05:10.310Z,11.00
2018-04-16T22:07:38.359Z,10.90
2018-04-16T22:10:06.411Z,10.80
2018-04-16T22:12:34.460Z,10.80
2018-04-16T22:15:02.525Z,10.70
2018-04-16T22:17:31.350Z,10.60
2018-04-16T22:19:59.427Z,10.60
2018-04-16T22:22:27.483Z,10.50
2018-04-16T22:24:56.327Z,10.40
2018-04-16T22:27:24.375Z,10.40
2018-04-16T22:29:53.196Z,10.30
2018-04-16T22:32:21.251Z,10.20
2018-04-16T22:34:49.315Z,10.20
2018-04-16T22:37:17.365Z,10.10
2018-04-16T22:39:45.448Z,10.00
2018-04-16T22:42:13.501Z,9.90
2018-04-16T22:44:42.313Z,9.80
2018-04-16T22:47:11.124Z,9.70
2018-04-16T22:49:39.224Z,9.70
2018-04-16T22:52:07.273Z,9.60
2018-04-16T22:54:36.076Z,9.60
2018-04-16T22:57:04.887Z,9.60
2018-04-16T22:59:33.699Z,9.50
2018-04-16T23:02:01.744Z,9.50
2018-04-16T23:04:29.779Z,9.40
2018-04-16T23:06:57.839Z,9.40
2018-04-16T23:09:26.660Z,9.40
2018-04-16T23:11:54.744Z,9.30
2018-04-16T23:14:22.797Z,9.30
2018-04-16T23:16:52.352Z,9.30
2018-04-16T23:19:20.383Z,9.30
2018-04-16T23:21:48.531Z,9.20
2018-04-16T23:24:16.563Z,9.20
2018-04-16T23:26:44.608Z,9.20
2018-04-16T23:29:12.655Z,9.20
2018-04-16T23:31:41.467Z,9.10
2018-04-16T23:34:09.509Z,9.10
2018-04-16T23:36:37.655Z,9.10
2018-04-16T23:39:06.475Z,9.10
2018-04-16T23:41:34.544Z,9.10
2018-04-16T23:44:02.591Z,9.10
2018-04-16T23:46:31.404Z,9.00
2018-04-16T23:49:00.202Z,9.00
2018-04-16T23:51:29.012Z,9.00
2018-04-16T23:53:57.052Z,9.00
2018-04-16T23:56:25.121Z,9.10
2018-04-16T23:58:53.192Z,9.10
